Terminal Aerodrome Forecast
Issued by NWS Albany, NY

Home | Current Version | Previous Version | Text Only | Print | Product List | Glossary On
Versions: 1 2 3 4 5 6 7 8 9 10 11 12 13 14 15 16 17 18 19 20 21 22 23 24
327
FTUS41 KALY 211737
TAFGFL
TAF
KGFL 211737Z 2118/2218 19007KT P6SM SCT250
     FM212200 23004KT P6SM FEW250
     FM220400 00000KT 4SM BR SCT250
     FM220800 00000KT 1 1/2SM BR VV003
     FM221200 20004KT P6SM SCT003 BKN200
     FM221500 20009KT P6SM BKN200 PROB30 2216/2218 4SM -TSRA
      OVC040CB=

USA.gov is the U.S. government's official web portal to all federal, state and local government web resources and services.